createdAt,value
2019-03-22T00:01:01.699Z,148.00
2019-03-22T00:03:31.762Z,159.35
2019-03-22T00:06:01.817Z,239.97
2019-03-22T00:08:31.964Z,234.83
2019-03-22T00:11:02.029Z,265.77
2019-03-22T00:13:33.123Z,519.77
2019-03-22T00:16:03.194Z,672.17
2019-03-22T00:18:34.224Z,295.77
2019-03-22T00:21:05.252Z,194.30
2019-03-22T00:23:35.330Z,146.85
2019-03-22T00:26:05.499Z,143.15
2019-03-22T00:28:35.604Z,131.73
2019-03-22T00:31:05.673Z,94.42
2019-03-22T00:33:35.712Z,87.27
2019-03-22T00:36:05.785Z,70.37
2019-03-22T00:38:35.823Z,61.93
2019-03-22T00:41:05.872Z,45.75
2019-03-22T00:43:35.908Z,41.30
2019-03-22T00:46:05.971Z,40.17
2019-03-22T00:48:36.013Z,42.20
2019-03-22T00:51:06.061Z,47.10
2019-03-22T00:53:36.120Z,48.48
2019-03-22T00:56:06.196Z,54.88
2019-03-22T00:58:36.255Z,58.73
2019-03-22T01:01:06.307Z,63.00
2019-03-22T01:03:36.384Z,62.88
2019-03-22T01:06:06.441Z,58.30
2019-03-22T01:08:36.517Z,63.17
2019-03-22T01:11:07.737Z,67.32
2019-03-22T01:13:37.776Z,63.90
2019-03-22T01:16:07.841Z,60.50
2019-03-22T01:18:37.880Z,51.83
2019-03-22T01:21:07.917Z,59.50
2019-03-22T01:23:37.978Z,65.22
2019-03-22T01:26:08.022Z,63.73
2019-03-22T01:28:38.135Z,62.55
2019-03-22T01:31:08.240Z,62.35
2019-03-22T01:33:38.289Z,47.83
2019-03-22T01:36:08.332Z,46.63
2019-03-22T01:38:38.389Z,43.52
2019-03-22T01:41:08.518Z,35.65
2019-03-22T01:43:38.579Z,34.87
2019-03-22T01:46:08.592Z,21.48
2019-03-22T01:48:38.646Z,20.67
2019-03-22T01:51:08.676Z,21.25
2019-03-22T01:53:38.734Z,25.23
2019-03-22T01:56:08.776Z,22.85
2019-03-22T01:58:38.837Z,26.45
2019-03-22T02:01:08.885Z,37.15
2019-03-22T02:03:38.925Z,37.00
2019-03-22T02:06:08.982Z,38.88
2019-03-22T02:08:39.066Z,47.97
2019-03-22T02:11:09.195Z,46.33
2019-03-22T02:13:39.241Z,43.15
2019-03-22T02:16:09.301Z,40.23
2019-03-22T02:18:39.340Z,109.42
2019-03-22T02:21:09.408Z,49.13
2019-03-22T02:23:39.453Z,115.15
2019-03-22T02:26:09.508Z,131.97
2019-03-22T02:28:39.549Z,94.42
2019-03-22T02:31:09.669Z,47.00
2019-03-22T02:33:39.704Z,39.05
2019-03-22T02:36:09.789Z,40.03
2019-03-22T02:38:39.826Z,50.70
2019-03-22T02:41:09.923Z,136.50
2019-03-22T02:43:39.944Z,40.12
2019-03-22T02:46:10.017Z,38.23
2019-03-22T02:48:40.063Z,33.55
2019-03-22T02:51:10.143Z,32.65
2019-03-22T02:53:40.189Z,417.25
2019-03-22T02:56:10.333Z,187.65
2019-03-22T02:58:40.602Z,50.73
2019-03-22T03:01:10.615Z,43.45
2019-03-22T03:03:40.671Z,36.45
2019-03-22T03:06:10.704Z,35.23
2019-03-22T03:08:40.762Z,30.02
2019-03-22T03:11:10.792Z,25.30
2019-03-22T03:13:40.853Z,23.90
2019-03-22T03:16:10.939Z,24.20
2019-03-22T03:18:40.947Z,24.80
2019-03-22T03:21:10.972Z,24.90
2019-03-22T03:23:41.049Z,24.07
2019-03-22T03:26:11.078Z,24.00
2019-03-22T03:28:41.156Z,26.48
2019-03-22T03:31:11.187Z,24.57
2019-03-22T03:33:41.326Z,26.02
2019-03-22T03:36:11.381Z,25.70
2019-03-22T03:38:41.436Z,24.25
2019-03-22T03:41:11.470Z,23.73
2019-03-22T03:43:41.523Z,31.45
2019-03-22T03:46:11.578Z,30.85
2019-03-22T03:48:41.616Z,38.80
2019-03-22T03:51:11.668Z,38.90
2019-03-22T03:53:41.706Z,41.03
2019-03-22T03:56:11.769Z,38.67
2019-03-22T03:58:52.440Z,34.27
2019-03-22T04:01:13.558Z,40.17
2019-03-22T04:03:44.433Z,38.30
2019-03-22T04:06:14.473Z,37.13
2019-03-22T04:08:44.534Z,37.25
2019-03-22T04:11:14.574Z,36.55
2019-03-22T04:13:44.619Z,33.70
2019-03-22T04:16:14.659Z,32.50
2019-03-22T04:18:44.740Z,37.35
2019-03-22T04:21:14.771Z,39.53
2019-03-22T04:23:44.862Z,35.70
2019-03-22T04:26:15.001Z,32.17
2019-03-22T04:28:45.123Z,35.23
2019-03-22T04:31:16.173Z,38.58
2019-03-22T04:33:46.257Z,38.50
2019-03-22T04:36:16.440Z,36.63
2019-03-22T04:38:46.494Z,34.27
2019-03-22T04:41:17.582Z,37.80
2019-03-22T04:43:47.651Z,57.50
2019-03-22T04:46:18.056Z,44.08
2019-03-22T04:48:49.269Z,42.47
2019-03-22T04:51:19.522Z,37.93
2019-03-22T04:53:55.673Z,43.60
2019-03-22T04:56:25.813Z,39.90
2019-03-22T04:58:56.439Z,42.50
2019-03-22T05:01:27.247Z,43.13
2019-03-22T05:03:59.144Z,68.50
2019-03-22T05:06:31.511Z,44.70
2019-03-22T05:09:01.939Z,119.30
2019-03-22T05:11:32.653Z,69.32
2019-03-22T05:14:55.364Z,62.48
2019-03-22T05:17:25.978Z,38.47
2019-03-22T05:19:57.038Z,37.27
2019-03-22T05:22:28.653Z,37.20
2019-03-22T05:25:00.386Z,35.45
2019-03-22T05:27:32.719Z,32.80
2019-03-22T05:30:03.920Z,33.07
2019-03-22T05:32:33.978Z,36.90
2019-03-22T05:35:04.075Z,140.15
2019-03-22T05:37:34.110Z,151.97
2019-03-22T05:40:04.720Z,62.73
2019-03-22T05:42:34.749Z,47.90
2019-03-22T05:45:05.644Z,41.75
2019-03-22T05:47:35.709Z,57.75
2019-03-22T05:50:06.438Z,47.70
2019-03-22T05:52:37.578Z,89.57
2019-03-22T05:55:08.069Z,58.35
2019-03-22T05:57:38.127Z,51.00
2019-03-22T06:00:08.214Z,51.40
2019-03-22T06:02:38.382Z,51.97
2019-03-22T06:05:08.444Z,49.35
2019-03-22T06:07:38.498Z,46.67
2019-03-22T06:10:08.537Z,46.60
2019-03-22T06:12:38.598Z,42.17
2019-03-22T06:15:10.642Z,45.63
2019-03-22T06:17:51.223Z,38.80
2019-03-22T06:20:12.592Z,40.67
2019-03-22T06:22:42.642Z,42.83
2019-03-22T06:25:12.695Z,42.58
2019-03-22T06:27:42.771Z,40.35
2019-03-22T06:30:13.100Z,43.48
2019-03-22T06:32:43.237Z,40.12
2019-03-22T06:35:13.319Z,40.40
2019-03-22T06:37:43.563Z,39.15
2019-03-22T06:40:13.672Z,36.93
2019-03-22T06:42:43.906Z,41.73
2019-03-22T06:45:14.082Z,39.98
2019-03-22T06:47:44.111Z,38.70
2019-03-22T06:50:14.178Z,45.08
2019-03-22T06:52:44.217Z,40.78
2019-03-22T06:55:14.279Z,42.78
2019-03-22T06:57:44.319Z,42.88
2019-03-22T07:00:14.532Z,43.40
2019-03-22T07:02:44.594Z,45.30
2019-03-22T07:05:14.720Z,44.83
2019-03-22T07:07:44.771Z,47.78
2019-03-22T07:10:14.880Z,53.02
2019-03-22T07:12:44.950Z,56.48
2019-03-22T07:15:15.321Z,55.95
2019-03-22T07:17:45.536Z,63.05
2019-03-22T07:20:15.849Z,67.65
2019-03-22T07:22:45.914Z,75.60
2019-03-22T07:25:16.039Z,70.83
2019-03-22T07:27:46.129Z,70.62
2019-03-22T07:30:18.862Z,71.57
2019-03-22T07:32:48.138Z,69.12
2019-03-22T07:35:18.197Z,85.75
2019-03-22T07:37:48.278Z,117.37
2019-03-22T07:40:18.399Z,141.70
2019-03-22T07:42:49.424Z,128.63
2019-03-22T07:45:19.475Z,140.20
2019-03-22T07:47:49.604Z,131.70
2019-03-22T07:50:19.657Z,141.57
2019-03-22T07:52:49.710Z,121.33
2019-03-22T07:55:19.771Z,127.30
2019-03-22T07:57:49.821Z,129.35
2019-03-22T08:00:30.281Z,148.60
2019-03-22T08:02:52.824Z,142.10
2019-03-22T08:05:22.845Z,156.35
2019-03-22T08:07:52.891Z,165.93
2019-03-22T08:10:22.943Z,165.75
2019-03-22T08:12:53.000Z,152.03
2019-03-22T08:15:30.594Z,165.88
2019-03-22T08:18:00.978Z,162.43
2019-03-22T08:20:32.311Z,177.95
2019-03-22T08:23:02.371Z,164.52
2019-03-22T08:25:32.728Z,153.82
2019-03-22T08:28:03.001Z,173.43
2019-03-22T08:30:42.583Z,166.85
2019-03-22T08:33:04.886Z,174.02
2019-03-22T08:35:34.960Z,157.52
2019-03-22T08:38:05.094Z,164.30
2019-03-22T08:40:35.145Z,159.18
2019-03-22T08:43:06.266Z,166.97
2019-03-22T08:45:36.331Z,162.73
2019-03-22T08:48:06.531Z,144.75
2019-03-22T08:50:36.581Z,154.72
2019-03-22T08:53:06.674Z,148.47
2019-03-22T08:55:36.734Z,136.93
2019-03-22T08:58:06.772Z,147.28
2019-03-22T09:00:39.424Z,157.50
2019-03-22T09:03:08.550Z,141.88
2019-03-22T09:05:39.683Z,145.35
2019-03-22T09:08:09.696Z,133.30
2019-03-22T09:10:39.755Z,133.60
2019-03-22T09:13:09.802Z,127.77
2019-03-22T09:15:41.595Z,120.65
2019-03-22T09:18:11.675Z,122.95
2019-03-22T09:20:41.743Z,118.40
2019-03-22T09:23:11.832Z,126.07
2019-03-22T09:25:41.911Z,119.80
2019-03-22T09:28:11.991Z,119.10
2019-03-22T09:30:41.994Z,117.77
2019-03-22T09:33:13.401Z,115.67
2019-03-22T09:35:43.576Z,110.70
2019-03-22T09:38:13.750Z,114.80
2019-03-22T09:40:43.781Z,114.47
2019-03-22T09:43:13.934Z,112.35
2019-03-22T09:45:44.184Z,113.75
2019-03-22T09:48:14.241Z,118.35
2019-03-22T09:50:44.299Z,118.33
2019-03-22T09:53:14.360Z,111.00
2019-03-22T09:55:44.478Z,132.70
2019-03-22T09:58:14.505Z,124.22
2019-03-22T10:00:44.600Z,117.35
2019-03-22T10:03:14.760Z,122.60
2019-03-22T10:05:44.743Z,112.10
2019-03-22T10:08:14.869Z,109.70
2019-03-22T10:10:44.899Z,107.12
2019-03-22T10:13:14.938Z,116.67
2019-03-22T10:15:45.005Z,117.50
2019-03-22T10:18:15.195Z,109.35
2019-03-22T10:20:45.231Z,108.70
2019-03-22T10:23:15.324Z,107.93
2019-03-22T10:25:45.453Z,104.17
2019-03-22T10:28:15.513Z,102.67
2019-03-22T10:30:45.584Z,105.07
2019-03-22T10:33:22.545Z,100.05
2019-03-22T10:35:47.526Z,97.88
2019-03-22T10:38:30.657Z,98.78
2019-03-22T10:40:49.364Z,97.62
2019-03-22T10:43:19.434Z,98.62
2019-03-22T10:45:49.483Z,93.97
2019-03-22T10:48:19.546Z,95.38
2019-03-22T10:50:49.598Z,96.10
2019-03-22T10:53:19.689Z,93.80
2019-03-22T10:55:49.727Z,86.00
2019-03-22T10:58:21.427Z,83.65
2019-03-22T11:00:51.599Z,95.35
2019-03-22T11:03:21.692Z,88.00
2019-03-22T11:05:51.844Z,79.25
2019-03-22T11:08:21.890Z,76.72
2019-03-22T11:10:52.006Z,75.37
2019-03-22T11:13:23.032Z,75.60
2019-03-22T11:15:53.109Z,81.05
2019-03-22T11:18:23.160Z,80.80
2019-03-22T11:20:53.227Z,63.92
2019-03-22T11:23:23.269Z,61.18
2019-03-22T11:25:53.316Z,50.33
2019-03-22T11:28:23.403Z,57.38
2019-03-22T11:30:53.443Z,70.32
2019-03-22T11:33:23.516Z,73.05
2019-03-22T11:35:53.558Z,36.07
2019-03-22T11:38:23.598Z,25.75
2019-03-22T11:40:53.649Z,31.35
2019-03-22T11:43:25.574Z,25.85
2019-03-22T11:45:55.435Z,28.65
2019-03-22T11:48:25.509Z,25.05
2019-03-22T11:50:55.571Z,30.40
2019-03-22T11:53:25.697Z,29.92
2019-03-22T11:55:55.765Z,22.67
2019-03-22T11:58:25.816Z,28.55
2019-03-22T12:00:55.862Z,30.62
2019-03-22T12:03:25.946Z,35.38
2019-03-22T12:05:55.998Z,26.62
2019-03-22T12:08:26.145Z,28.47
2019-03-22T12:10:56.223Z,30.50
2019-03-22T12:13:26.282Z,33.02
2019-03-22T12:15:56.339Z,32.40
2019-03-22T12:18:26.531Z,26.20
2019-03-22T12:20:56.737Z,34.73
2019-03-22T12:23:26.795Z,29.83
2019-03-22T12:25:57.818Z,33.02
2019-03-22T12:28:27.982Z,32.50
2019-03-22T12:30:58.043Z,35.70
2019-03-22T12:33:28.133Z,32.70
2019-03-22T12:35:58.244Z,37.00
2019-03-22T12:38:28.347Z,37.30
2019-03-22T12:40:58.435Z,27.50
2019-03-22T12:43:28.619Z,34.93
2019-03-22T12:45:58.659Z,31.85
2019-03-22T12:48:28.822Z,31.53
2019-03-22T12:50:58.882Z,28.32
2019-03-22T12:53:29.023Z,32.53
2019-03-22T12:55:59.129Z,34.25
2019-03-22T12:58:29.438Z,27.35
2019-03-22T13:00:59.531Z,30.45
2019-03-22T13:03:29.636Z,31.10
2019-03-22T13:05:59.754Z,29.32
2019-03-22T13:08:29.839Z,37.13
2019-03-22T13:10:59.896Z,23.20
2019-03-22T13:13:29.944Z,32.33
2019-03-22T13:16:00.078Z,29.43
2019-03-22T13:18:30.235Z,32.83
2019-03-22T13:21:01.255Z,28.53
2019-03-22T13:23:31.309Z,32.43
2019-03-22T13:26:02.343Z,33.67
2019-03-22T13:28:32.400Z,27.23
2019-03-22T13:31:02.514Z,24.87
2019-03-22T13:33:32.756Z,28.00
2019-03-22T13:36:02.848Z,31.82
2019-03-22T13:38:32.937Z,28.60
2019-03-22T13:41:02.991Z,32.15
2019-03-22T13:43:33.087Z,30.75
2019-03-22T13:46:03.214Z,32.93
2019-03-22T13:48:33.337Z,25.75
2019-03-22T13:51:03.571Z,30.10
2019-03-22T13:53:33.697Z,28.97
2019-03-22T13:56:03.990Z,27.98
2019-03-22T13:58:34.098Z,27.13
2019-03-22T14:01:04.170Z,29.10
2019-03-22T14:03:34.239Z,25.65
2019-03-22T14:06:04.355Z,26.23
2019-03-22T14:08:34.437Z,26.95
2019-03-22T14:11:04.979Z,27.90
2019-03-22T14:13:35.149Z,27.15
2019-03-22T14:16:05.231Z,26.43
2019-03-22T14:18:35.370Z,24.32
2019-03-22T14:21:05.459Z,21.67
2019-03-22T14:23:35.618Z,27.00
2019-03-22T14:26:05.705Z,24.43
2019-03-22T14:28:35.776Z,25.70
2019-03-22T14:31:05.846Z,23.95
2019-03-22T14:33:35.976Z,27.05
2019-03-22T14:36:06.076Z,21.70
2019-03-22T14:38:36.133Z,26.20
2019-03-22T14:41:06.215Z,22.10
2019-03-22T14:43:36.371Z,25.57
2019-03-22T14:46:06.459Z,21.90
2019-03-22T14:48:37.495Z,18.12
2019-03-22T14:51:07.708Z,19.73
2019-03-22T14:53:37.779Z,16.67
2019-03-22T14:56:07.859Z,13.22
2019-03-22T14:58:38.021Z,12.63
2019-03-22T15:01:08.100Z,14.86
2019-03-22T15:03:38.253Z,14.80
2019-03-22T15:06:08.356Z,15.27
2019-03-22T15:08:38.437Z,11.75
2019-03-22T15:11:08.518Z,12.10
2019-03-22T15:13:57.631Z,15.83
2019-03-22T15:16:46.247Z,12.60
2019-03-22T15:19:47.444Z,13.03
2019-03-22T15:22:37.865Z,11.83
2019-03-22T15:25:33.727Z,12.75
2019-03-22T15:28:41.162Z,14.07
2019-03-22T15:31:35.448Z,14.75
2019-03-22T15:34:25.100Z,15.93
2019-03-22T15:37:15.426Z,13.70
2019-03-22T15:40:00.444Z,9.70
2019-03-22T15:42:30.864Z,14.20
2019-03-22T15:45:00.953Z,15.90
2019-03-22T15:47:31.175Z,14.13
2019-03-22T15:50:01.243Z,15.60
2019-03-22T15:52:33.216Z,14.07
2019-03-22T15:55:03.257Z,35.60
2019-03-22T15:57:33.453Z,45.97
2019-03-22T16:00:03.705Z,25.88
2019-03-22T16:02:33.811Z,14.30
2019-03-22T16:05:04.383Z,14.77
2019-03-22T16:07:34.492Z,10.10
2019-03-22T16:10:05.422Z,10.83
2019-03-22T16:12:35.504Z,11.83
2019-03-22T16:15:07.065Z,11.00
2019-03-22T16:17:37.333Z,16.48
2019-03-22T16:20:08.489Z,16.30
2019-03-22T16:22:38.594Z,14.80
2019-03-22T16:25:08.858Z,14.50
2019-03-22T16:27:39.025Z,12.55
2019-03-22T16:30:09.618Z,15.30
2019-03-22T16:32:39.692Z,15.75
2019-03-22T16:35:09.974Z,28.53
2019-03-22T16:37:40.053Z,27.75
2019-03-22T16:40:10.544Z,31.03
2019-03-22T16:42:41.599Z,31.75
2019-03-22T16:45:11.846Z,40.50
2019-03-22T16:47:41.918Z,36.30
2019-03-22T16:50:23.338Z,39.57
2019-03-22T16:52:53.482Z,37.63
2019-03-22T16:55:24.108Z,33.13
2019-03-22T16:57:58.831Z,35.25
2019-03-22T17:00:28.973Z,38.60
2019-03-22T17:02:59.120Z,47.37
2019-03-22T17:05:29.273Z,45.52
2019-03-22T17:07:59.425Z,37.50
2019-03-22T17:10:29.604Z,37.40
2019-03-22T17:12:59.702Z,21.37
2019-03-22T17:15:29.768Z,17.40
2019-03-22T17:17:59.849Z,12.27
2019-03-22T17:20:30.004Z,13.63
2019-03-22T17:23:00.105Z,17.47
2019-03-22T17:25:30.169Z,15.97
2019-03-22T17:28:00.371Z,13.28
2019-03-22T17:30:30.412Z,18.65
2019-03-22T17:33:00.519Z,30.55
2019-03-22T17:35:30.632Z,65.50
2019-03-22T17:38:00.701Z,53.30
2019-03-22T17:40:30.854Z,36.33
2019-03-22T17:43:00.960Z,84.00
2019-03-22T17:45:31.121Z,33.38
2019-03-22T17:48:01.260Z,33.73
2019-03-22T17:50:32.409Z,20.05
2019-03-22T17:53:02.500Z,23.92
2019-03-22T17:55:32.604Z,25.30
2019-03-22T17:58:02.947Z,24.80
2019-03-22T18:00:33.069Z,23.10
2019-03-22T18:03:03.136Z,24.75
2019-03-22T18:05:33.280Z,27.03
2019-03-22T18:08:03.462Z,32.00
2019-03-22T18:10:33.588Z,27.87
2019-03-22T18:13:03.718Z,27.33
2019-03-22T18:15:33.795Z,30.23
2019-03-22T18:18:03.907Z,31.30
2019-03-22T18:20:34.106Z,32.23
2019-03-22T18:23:04.216Z,37.13
2019-03-22T18:25:34.313Z,37.90
2019-03-22T18:28:04.487Z,48.28
2019-03-22T18:30:34.560Z,49.70
2019-03-22T18:33:04.874Z,49.73
2019-03-22T18:35:34.963Z,55.30
2019-03-22T18:38:05.123Z,58.87
2019-03-22T18:40:35.202Z,60.40
2019-03-22T18:43:05.498Z,50.50
2019-03-22T18:45:35.627Z,57.00
2019-03-22T18:48:05.758Z,55.37
2019-03-22T18:50:35.830Z,58.87
2019-03-22T18:53:06.005Z,56.50
2019-03-22T18:55:36.087Z,57.13
2019-03-22T18:58:06.231Z,55.67
2019-03-22T19:00:36.286Z,54.83
2019-03-22T19:03:06.439Z,55.50
2019-03-22T19:05:36.531Z,57.80
2019-03-22T19:08:06.592Z,57.50
2019-03-22T19:10:36.878Z,54.07
2019-03-22T19:13:07.832Z,54.88
2019-03-22T19:15:38.087Z,52.63
2019-03-22T19:18:08.188Z,57.53
2019-03-22T19:20:38.288Z,58.68
2019-03-22T19:23:08.446Z,54.20
2019-03-22T19:25:38.516Z,54.98
2019-03-22T19:28:08.794Z,55.33
2019-03-22T19:30:38.841Z,56.30
2019-03-22T19:33:08.945Z,68.67
2019-03-22T19:35:39.632Z,65.25
2019-03-22T19:38:09.728Z,67.37
2019-03-22T19:40:39.871Z,67.85
2019-03-22T19:43:09.982Z,71.53
2019-03-22T19:45:40.066Z,68.83
2019-03-22T19:48:10.167Z,75.53
2019-03-22T19:50:40.263Z,79.20
2019-03-22T19:53:10.325Z,81.10
2019-03-22T19:55:40.422Z,70.97
2019-03-22T19:58:10.521Z,63.25
2019-03-22T20:00:40.613Z,66.70
2019-03-22T20:03:10.686Z,71.35
2019-03-22T20:05:41.012Z,65.10
2019-03-22T20:08:13.703Z,63.58
2019-03-22T20:10:42.888Z,66.37
2019-03-22T20:13:13.004Z,58.30
2019-03-22T20:15:43.094Z,54.10
2019-03-22T20:18:13.197Z,57.27
2019-03-22T20:20:43.306Z,54.20
2019-03-22T20:23:13.411Z,65.73
2019-03-22T20:25:43.503Z,58.03
2019-03-22T20:28:13.560Z,65.00
2019-03-22T20:30:43.644Z,70.60
2019-03-22T20:33:13.712Z,68.57
2019-03-22T20:35:43.839Z,71.40
2019-03-22T20:38:13.997Z,67.82
2019-03-22T20:40:44.141Z,74.13
2019-03-22T20:43:15.379Z,66.87
2019-03-22T20:45:45.472Z,75.12
2019-03-22T20:48:15.552Z,69.72
2019-03-22T20:50:45.687Z,68.62
2019-03-22T20:53:15.774Z,72.17
2019-03-22T20:55:45.853Z,81.22
2019-03-22T20:58:15.940Z,79.60
2019-03-22T21:00:46.045Z,83.92
2019-03-22T21:03:16.184Z,74.25
2019-03-22T21:05:46.311Z,72.82
2019-03-22T21:08:16.405Z,69.87
2019-03-22T21:10:46.549Z,73.53
2019-03-22T21:13:16.625Z,66.97
2019-03-22T21:15:46.751Z,71.57
2019-03-22T21:18:16.870Z,71.80
2019-03-22T21:20:46.997Z,64.50
2019-03-22T21:23:17.134Z,63.53
2019-03-22T21:25:47.829Z,68.47
2019-03-22T21:28:17.882Z,65.55
2019-03-22T21:30:47.978Z,71.33
2019-03-22T21:33:18.058Z,63.05
2019-03-22T21:35:48.164Z,64.20
2019-03-22T21:38:18.221Z,67.70
2019-03-22T21:40:48.407Z,58.70
2019-03-22T21:43:18.464Z,67.80
2019-03-22T21:45:48.620Z,65.50
2019-03-22T21:48:18.748Z,65.20
2019-03-22T21:50:48.890Z,64.50
2019-03-22T21:53:18.951Z,62.37
2019-03-22T21:55:50.169Z,64.25
2019-03-22T21:58:20.326Z,65.40
2019-03-22T22:00:50.411Z,70.62
2019-03-22T22:03:20.525Z,70.63
2019-03-22T22:05:52.136Z,71.10
2019-03-22T22:08:22.228Z,69.77
2019-03-22T22:10:59.753Z,71.42
2019-03-22T22:13:24.182Z,74.20
2019-03-22T22:15:54.429Z,65.62
2019-03-22T22:18:24.503Z,62.05
2019-03-22T22:20:54.570Z,65.90
2019-03-22T22:23:24.832Z,65.97
2019-03-22T22:25:54.833Z,66.10
2019-03-22T22:28:25.123Z,62.40
2019-03-22T22:30:55.225Z,56.55
2019-03-22T22:33:25.410Z,53.73
2019-03-22T22:35:58.867Z,55.88
2019-03-22T22:38:27.274Z,56.83
2019-03-22T22:40:57.521Z,55.23
2019-03-22T22:43:27.572Z,49.80
2019-03-22T22:45:57.652Z,46.98
2019-03-22T22:48:27.704Z,41.88
2019-03-22T22:50:57.790Z,44.93
2019-03-22T22:53:27.842Z,46.00
2019-03-22T22:55:57.975Z,44.40
2019-03-22T22:58:28.039Z,41.98
2019-03-22T23:00:58.181Z,41.10
2019-03-22T23:03:29.887Z,37.40
2019-03-22T23:06:09.103Z,35.92
2019-03-22T23:08:31.728Z,40.50
2019-03-22T23:11:01.810Z,35.58
2019-03-22T23:13:31.873Z,34.80
2019-03-22T23:16:03.054Z,36.28
2019-03-22T23:18:33.111Z,31.97
2019-03-22T23:21:03.195Z,40.75
2019-03-22T23:23:33.280Z,29.40
2019-03-22T23:26:03.333Z,35.68
2019-03-22T23:28:33.455Z,29.30
2019-03-22T23:31:03.508Z,34.60
2019-03-22T23:33:33.601Z,24.87
2019-03-22T23:36:03.749Z,24.92
2019-03-22T23:38:33.847Z,23.65
2019-03-22T23:41:03.892Z,25.48
2019-03-22T23:43:33.968Z,26.37
2019-03-22T23:46:04.020Z,30.88
2019-03-22T23:48:34.095Z,23.30
2019-03-22T23:51:04.154Z,28.40
2019-03-22T23:53:34.212Z,25.57
2019-03-22T23:56:04.315Z,22.55
2019-03-22T23:58:35.344Z,24.20
